Alanreed, TX (79002)

3:04 PM CDT on September 30, 2014 (GMT -0500)
Perry Lefors | Change Station
CLOSE
Current Station
Airport
Location: Pampa,
Elevation: 989 m
Nearby Weather Stations

Elev 989 m 35.61 °N, 101.00 °W | Updated 49 minutes ago

Partly Cloudy
Partly Cloudy
29 °C
Feels Like 29 °C
N
26
Wind Variable Wind from SW
Gusts 35 km/h

Today
High -- | Low -- °C
--% Chance of Precip.
Yesterday
High -- | Low -- °C
Precip. -- mm
7:37 AM 7:28 PM
Waxing Crescent, 39% visible
Pressure 1009 hPa
Visibility 16.1 kilometers
Clouds Mostly Cloudy 2590 m
Dew Point 9 °C
Humidity 28%
Rainfall 0.0 mm
Snow Depth Not available.
UV 4 out of 12
Pollen 9.20 out of 12
Air Quality Not available.
Flu Activity Not available.
METAR KPPA 301915Z AUTO 23014G19KT 10SM BKN085 29/09 A2981 RMK AO2 T02890088

More Conditions Fewer Conditions

Pressure 1009 hPa
Visibility 16.1 kilometers
Clouds Mostly Cloudy 2590 m
Dew Point 9 °C
Humidity 28%
Rainfall 0.0 mm
Snow Depth Not available.
UV 4 out of 12
Pollen 9.20 out of 12
Air Quality Not available.
Flu Activity Not available.
METAR KPPA 301915Z AUTO 23014G19KT 10SM BKN085 29/09 A2981 RMK AO2 T02890088

More Conditions Fewer Conditions

10-Day Weather Forecast

Almanac

Astronomy

Sep. 30, 2014 Rise Set
Actual Time 7:37 AM CDT 7:28 PM CDT
Civil Twilight 7:11 AM CDT 7:53 PM CDT
Nautical Twilight 6:42 AM CDT 8:22 PM CDT
Astronomical Twilight 6:12 AM CDT 8:52 PM CDT
Moon 1:37 PM CDT No Moon Set
Length of Visible Light 12h 41m
Length of Day
11h 51m
Tomorrow will be 2m 12s shorter.
Waxing Crescent, 39% of the Moon is Illuminated
Today
Waxing Crescent
Oct 1
First Quarter
Oct 8
Full
Oct 15
Last Quarter
Oct 23
New

Today's Extremes

State Highs State Lows

Community

WunderPhotos

Upload Photos

1,757,736 photos uploaded!

Nearby

Snow Depth

Station Depth Elevation
No new snow has been reported.

Earthquake Activity

City Distance Mag. Time & Date
No recent earthquake activity has been reported nearby.
Minimum magnitude displayed is 2.5.

Coastal Water Temperatures

Place Temperature
No Stations Reporting

Nearby Weather Stations